createdAt,value
2018-07-08T00:02:00.092Z,18.00
2018-07-08T00:04:28.326Z,18.10
2018-07-08T00:06:59.426Z,18.10
2018-07-08T00:09:27.677Z,18.10
2018-07-08T00:11:55.954Z,18.00
2018-07-08T00:14:24.184Z,18.10
2018-07-08T00:16:52.406Z,18.10
2018-07-08T00:19:20.644Z,18.10
2018-07-08T00:21:48.892Z,18.10
2018-07-08T00:24:17.112Z,18.00
2018-07-08T00:26:45.343Z,18.00
2018-07-08T00:29:13.579Z,17.80
2018-07-08T00:31:41.819Z,17.80
2018-07-08T00:34:10.085Z,17.90
2018-07-08T00:36:38.285Z,17.90
2018-07-08T00:39:07.498Z,17.80
2018-07-08T00:41:35.790Z,17.70
2018-07-08T00:44:03.994Z,17.70
2018-07-08T00:46:32.187Z,17.70
2018-07-08T00:49:00.385Z,17.70
2018-07-08T00:51:28.589Z,17.70
2018-07-08T00:53:56.797Z,17.60
2018-07-08T00:56:24.998Z,17.60
2018-07-08T00:58:53.227Z,17.50
2018-07-08T01:01:21.436Z,17.50
2018-07-08T01:03:49.594Z,17.50
2018-07-08T01:06:18.254Z,17.40
2018-07-08T01:08:46.427Z,17.40
2018-07-08T01:11:14.572Z,17.30
2018-07-08T01:13:42.724Z,17.30
2018-07-08T01:16:10.888Z,17.30
2018-07-08T01:18:39.039Z,17.30
2018-07-08T01:21:07.198Z,17.20
2018-07-08T01:23:35.355Z,17.10
2018-07-08T01:26:10.509Z,17.00
2018-07-08T01:28:39.196Z,17.20
2018-07-08T01:31:07.738Z,17.20
2018-07-08T01:33:35.885Z,17.20
2018-07-08T01:36:04.085Z,17.10
2018-07-08T01:38:32.329Z,17.00
2018-07-08T01:41:00.470Z,17.00
2018-07-08T01:43:29.056Z,16.90
2018-07-08T01:45:57.331Z,16.80
2018-07-08T01:48:25.510Z,16.70
2018-07-08T01:50:53.670Z,16.60
2018-07-08T01:53:22.870Z,16.50
2018-07-08T01:55:51.010Z,16.60
2018-07-08T01:58:19.175Z,16.50
2018-07-08T02:00:47.361Z,16.50
2018-07-08T02:03:15.630Z,16.50
2018-07-08T02:05:43.783Z,16.50
2018-07-08T02:08:11.913Z,16.60
2018-07-08T02:10:40.070Z,16.60
2018-07-08T02:13:08.224Z,16.60
2018-07-08T02:15:36.549Z,16.40
2018-07-08T02:18:04.709Z,16.50
2018-07-08T02:20:32.854Z,16.40
2018-07-08T02:23:01.182Z,16.50
2018-07-08T02:25:29.381Z,16.40
2018-07-08T02:27:57.546Z,16.40
2018-07-08T02:30:25.873Z,16.50
2018-07-08T02:32:54.015Z,16.40
2018-07-08T02:35:22.168Z,16.30
2018-07-08T02:37:50.638Z,16.30
2018-07-08T02:40:18.877Z,16.20
2018-07-08T02:42:47.051Z,16.20
2018-07-08T02:45:15.447Z,16.10
2018-07-08T02:47:43.610Z,16.10
2018-07-08T02:50:11.757Z,16.10
2018-07-08T02:52:40.192Z,16.00
2018-07-08T02:55:08.348Z,15.90
2018-07-08T02:57:36.490Z,15.90
2018-07-08T03:00:05.054Z,16.00
2018-07-08T03:02:33.237Z,16.00
2018-07-08T03:05:01.391Z,15.80
2018-07-08T03:07:29.530Z,15.80
2018-07-08T03:09:57.674Z,15.70
2018-07-08T03:12:25.813Z,15.70
2018-07-08T03:14:53.966Z,15.70
2018-07-08T03:17:22.194Z,15.80
2018-07-08T03:19:50.387Z,15.60
2018-07-08T03:22:18.562Z,15.80
2018-07-08T03:24:46.841Z,15.70
2018-07-08T03:29:42.929Z,15.70
2018-07-08T03:32:11.078Z,15.70
2018-07-08T03:34:39.245Z,15.70
2018-07-08T03:37:07.394Z,15.70
2018-07-08T03:39:35.546Z,15.60
2018-07-08T03:42:03.695Z,15.70
2018-07-08T03:44:31.847Z,15.70
2018-07-08T03:47:00.007Z,15.80
2018-07-08T03:49:28.166Z,15.90
2018-07-08T03:51:56.317Z,15.90
2018-07-08T03:54:26.481Z,16.00
2018-07-08T03:56:54.758Z,16.00
2018-07-08T03:59:23.021Z,16.00
2018-07-08T04:01:51.201Z,16.00
2018-07-08T04:04:19.593Z,16.00
2018-07-08T04:06:47.738Z,16.10
2018-07-08T04:09:16.445Z,16.20
2018-07-08T04:11:44.726Z,16.20
2018-07-08T04:14:12.925Z,16.30
2018-07-08T04:16:41.070Z,16.30
2018-07-08T04:19:09.205Z,16.40
2018-07-08T04:21:37.368Z,16.40
2018-07-08T04:24:05.536Z,16.50
2018-07-08T04:26:33.711Z,16.50
2018-07-08T04:31:29.769Z,16.60
2018-07-08T04:33:57.942Z,16.70
2018-07-08T04:36:26.101Z,16.70
2018-07-08T04:38:54.281Z,16.20
2018-07-08T04:41:22.436Z,16.70
2018-07-08T04:43:50.601Z,16.70
2018-07-08T04:46:18.759Z,16.70
2018-07-08T04:48:47.027Z,16.80
2018-07-08T04:51:15.407Z,16.90
2018-07-08T04:53:43.567Z,16.90
2018-07-08T04:56:11.738Z,17.00
2018-07-08T04:58:39.888Z,17.10
2018-07-08T05:01:08.042Z,17.10
2018-07-08T05:03:36.187Z,17.20
2018-07-08T05:06:04.335Z,17.30
2018-07-08T05:08:32.502Z,17.30
2018-07-08T05:11:00.724Z,17.40
2018-07-08T05:13:28.892Z,17.50
2018-07-08T05:15:57.059Z,17.50
2018-07-08T05:18:25.200Z,17.60
2018-07-08T05:20:53.344Z,17.70
2018-07-08T05:23:21.486Z,17.70
2018-07-08T05:25:49.649Z,17.80
2018-07-08T05:28:17.796Z,17.80
2018-07-08T05:33:13.936Z,17.80
2018-07-08T05:35:42.132Z,18.00
2018-07-08T05:38:10.251Z,18.10
2018-07-08T05:40:38.601Z,18.20
2018-07-08T05:43:06.757Z,18.30
2018-07-08T05:45:34.921Z,18.40
2018-07-08T05:48:03.085Z,18.50
2018-07-08T05:50:31.301Z,18.70
2018-07-08T05:52:59.402Z,18.80
2018-07-08T05:55:27.571Z,18.90
2018-07-08T05:57:55.725Z,19.10
2018-07-08T06:00:23.883Z,19.20
2018-07-08T06:02:52.045Z,19.30
2018-07-08T06:05:20.228Z,19.40
2018-07-08T06:07:48.376Z,19.50
2018-07-08T06:10:16.545Z,19.60
2018-07-08T06:12:44.725Z,19.60
2018-07-08T06:15:12.889Z,19.70
2018-07-08T06:17:41.062Z,19.80
2018-07-08T06:20:10.567Z,19.80
2018-07-08T06:22:39.075Z,19.80
2018-07-08T06:25:07.334Z,19.90
2018-07-08T06:27:35.658Z,20.00
2018-07-08T06:30:10.887Z,20.00
2018-07-08T06:35:07.043Z,20.20
2018-07-08T06:37:35.216Z,20.10
2018-07-08T06:40:03.414Z,20.20
2018-07-08T06:42:31.621Z,20.30
2018-07-08T06:44:59.830Z,20.30
2018-07-08T06:47:28.061Z,20.30
2018-07-08T06:49:56.307Z,20.40
2018-07-08T06:52:24.540Z,20.50
2018-07-08T06:54:52.735Z,20.40
2018-07-08T06:57:20.948Z,20.60
2018-07-08T06:59:49.107Z,20.80
2018-07-08T07:02:17.298Z,20.90
2018-07-08T07:04:45.503Z,20.90
2018-07-08T07:07:13.702Z,21.00
2018-07-08T07:09:41.867Z,21.00
2018-07-08T07:12:10.101Z,21.00
2018-07-08T07:14:38.318Z,21.00
2018-07-08T07:17:06.547Z,21.10
2018-07-08T07:19:34.733Z,21.10
2018-07-08T07:22:02.927Z,21.30
2018-07-08T07:24:31.534Z,21.40
2018-07-08T07:26:59.745Z,21.40
2018-07-08T07:29:27.951Z,21.30
2018-07-08T07:34:24.171Z,21.50
2018-07-08T07:39:21.359Z,21.40
2018-07-08T07:41:49.559Z,21.60
2018-07-08T07:44:17.801Z,21.70
2018-07-08T07:46:46.028Z,21.90
2018-07-08T07:49:14.489Z,22.00
2018-07-08T07:51:42.726Z,22.10
2018-07-08T07:54:11.290Z,22.10
2018-07-08T07:56:39.520Z,22.20
2018-07-08T07:59:07.768Z,22.30
2018-07-08T08:01:35.920Z,22.40
2018-07-08T08:04:04.184Z,22.50
2018-07-08T08:06:32.390Z,22.40
2018-07-08T08:09:00.655Z,22.50
2018-07-08T08:11:28.840Z,22.40
2018-07-08T08:14:00.282Z,22.40
2018-07-08T08:16:28.500Z,22.40
2018-07-08T08:18:56.715Z,22.50
2018-07-08T08:21:25.586Z,22.50
2018-07-08T08:23:54.404Z,22.60
2018-07-08T08:26:22.632Z,22.70
2018-07-08T08:28:50.830Z,22.70
2018-07-08T08:31:19.244Z,22.80
2018-07-08T08:36:20.947Z,23.00
2018-07-08T08:38:49.383Z,23.10
2018-07-08T08:41:17.626Z,23.40
2018-07-08T08:43:45.879Z,23.50
2018-07-08T08:46:14.032Z,23.80
2018-07-08T08:48:42.589Z,23.90
2018-07-08T08:51:10.859Z,24.30
2018-07-08T08:53:39.087Z,24.20
2018-07-08T08:56:07.694Z,24.30
2018-07-08T08:58:35.905Z,24.30
2018-07-08T09:03:32.998Z,24.80
2018-07-08T09:06:01.260Z,24.70
2018-07-08T09:08:29.482Z,24.90
2018-07-08T09:10:57.714Z,25.00
2018-07-08T09:13:27.396Z,25.20
2018-07-08T09:15:55.575Z,25.40
2018-07-08T09:18:23.814Z,25.30
2018-07-08T09:20:51.997Z,25.30
2018-07-08T09:23:20.156Z,25.30
2018-07-08T09:25:48.307Z,25.20
2018-07-08T09:28:16.462Z,25.30
2018-07-08T09:30:44.608Z,25.30
2018-07-08T09:33:12.773Z,25.20
2018-07-08T09:35:40.963Z,25.30
2018-07-08T09:38:09.110Z,25.40
2018-07-08T09:40:37.569Z,25.30
2018-07-08T09:43:05.871Z,25.30
2018-07-08T09:45:34.090Z,25.40
2018-07-08T09:48:02.543Z,25.50
2018-07-08T09:50:31.105Z,25.50
2018-07-08T09:52:59.327Z,25.60
2018-07-08T09:55:27.585Z,25.80
2018-07-08T09:57:55.864Z,25.80
2018-07-08T10:00:25.165Z,25.90
2018-07-08T10:02:53.641Z,25.80
2018-07-08T10:05:21.934Z,25.90
2018-07-08T10:10:18.198Z,25.90
2018-07-08T10:12:46.482Z,25.90
2018-07-08T10:15:14.799Z,26.00
2018-07-08T10:17:43.117Z,26.00
2018-07-08T10:20:11.488Z,26.00
2018-07-08T10:22:39.679Z,25.90
2018-07-08T10:25:07.958Z,26.00
2018-07-08T10:27:59.326Z,26.00
2018-07-08T10:30:27.647Z,25.90
2018-07-08T10:32:56.234Z,25.90
2018-07-08T10:35:35.787Z,25.90
2018-07-08T10:38:04.083Z,25.80
2018-07-08T10:40:33.118Z,25.90
2018-07-08T10:43:01.400Z,26.00
2018-07-08T10:45:29.710Z,26.00
2018-07-08T10:47:57.970Z,26.20
2018-07-08T10:50:26.335Z,26.30
2018-07-08T10:52:54.659Z,26.40
2018-07-08T10:55:22.957Z,26.50
2018-07-08T10:57:51.229Z,26.50
2018-07-08T11:00:19.471Z,26.50
2018-07-08T11:02:47.893Z,26.60
2018-07-08T11:05:16.140Z,26.60
2018-07-08T11:07:44.368Z,26.40
2018-07-08T11:10:12.571Z,26.30
2018-07-08T11:12:40.871Z,26.30
2018-07-08T11:15:09.118Z,26.30
2018-07-08T11:17:37.567Z,26.30
2018-07-08T11:20:06.019Z,26.50
2018-07-08T11:22:34.318Z,26.40
2018-07-08T11:25:02.560Z,26.40
2018-07-08T11:27:30.801Z,26.40
2018-07-08T11:29:59.030Z,26.40
2018-07-08T11:32:27.243Z,26.00
2018-07-08T11:34:55.830Z,25.90
2018-07-08T11:37:24.038Z,25.90
2018-07-08T11:39:52.257Z,25.80
2018-07-08T11:42:20.709Z,25.80
2018-07-08T11:44:48.939Z,25.80
2018-07-08T11:47:17.140Z,25.80
2018-07-08T11:49:45.365Z,25.80
2018-07-08T11:52:13.579Z,25.90
2018-07-08T11:54:41.830Z,25.80
2018-07-08T11:57:10.045Z,25.80
2018-07-08T11:59:38.281Z,25.80
2018-07-08T12:02:06.538Z,25.90
2018-07-08T12:04:34.818Z,25.90
2018-07-08T12:07:03.090Z,25.90
2018-07-08T12:09:31.362Z,25.90
2018-07-08T12:11:59.634Z,26.00
2018-07-08T12:14:28.212Z,25.90
2018-07-08T12:16:56.511Z,26.00
2018-07-08T12:19:24.788Z,25.90
2018-07-08T12:21:53.059Z,26.00
2018-07-08T12:24:21.314Z,26.10
2018-07-08T12:26:49.822Z,26.20
2018-07-08T12:29:18.094Z,26.20
2018-07-08T12:31:46.382Z,26.20
2018-07-08T12:34:14.669Z,26.10
2018-07-08T12:36:42.946Z,26.10
2018-07-08T12:39:12.711Z,26.00
2018-07-08T12:42:43.707Z,26.00
2018-07-08T12:45:11.948Z,25.80
2018-07-08T12:50:08.202Z,25.90
2018-07-08T12:52:36.503Z,25.90
2018-07-08T12:55:04.769Z,25.80
2018-07-08T12:57:33.142Z,25.80
2018-07-08T13:00:01.529Z,25.80
2018-07-08T13:02:29.798Z,25.90
2018-07-08T13:04:58.012Z,25.80
2018-07-08T13:07:26.262Z,25.80
2018-07-08T13:09:54.482Z,25.80
2018-07-08T13:12:22.790Z,25.90
2018-07-08T13:14:51.030Z,25.90
2018-07-08T13:17:19.241Z,25.90
2018-07-08T13:19:47.512Z,26.00
2018-07-08T13:22:15.749Z,26.10
2018-07-08T13:24:43.960Z,26.10
2018-07-08T13:27:12.395Z,25.80
2018-07-08T13:29:47.146Z,25.90
2018-07-08T13:32:15.485Z,26.00
2018-07-08T13:34:43.695Z,26.10
2018-07-08T13:37:11.898Z,26.20
2018-07-08T13:39:40.438Z,26.20
2018-07-08T13:42:08.666Z,26.20
2018-07-08T13:44:36.913Z,26.10
2018-07-08T13:47:05.293Z,26.10
2018-07-08T13:49:33.875Z,26.00
2018-07-08T13:52:02.094Z,26.20
2018-07-08T13:54:30.307Z,26.10
2018-07-08T13:56:58.530Z,26.20
2018-07-08T13:59:26.759Z,26.20
2018-07-08T14:01:55.617Z,26.30
2018-07-08T14:04:24.493Z,26.30
2018-07-08T14:06:52.710Z,26.30
2018-07-08T14:09:21.050Z,26.40
2018-07-08T14:11:49.185Z,26.40
2018-07-08T14:14:18.952Z,26.30
2018-07-08T14:16:47.171Z,26.30
2018-07-08T14:19:15.399Z,26.30
2018-07-08T14:21:43.660Z,26.30
2018-07-08T14:24:11.870Z,26.40
2018-07-08T14:26:40.095Z,26.50
2018-07-08T14:29:08.310Z,26.60
2018-07-08T14:31:36.558Z,26.60
2018-07-08T14:34:04.831Z,26.60
2018-07-08T14:36:33.077Z,26.60
2018-07-08T14:39:05.269Z,26.50
2018-07-08T14:41:34.927Z,26.60
2018-07-08T14:44:27.070Z,26.60
2018-07-08T14:47:00.560Z,26.70
2018-07-08T14:49:50.742Z,25.60
2018-07-08T14:52:28.655Z,26.60
2018-07-08T14:55:10.448Z,26.80
2018-07-08T14:57:44.101Z,26.90
2018-07-08T15:00:13.835Z,26.90
2018-07-08T15:02:53.332Z,26.80
2018-07-08T15:05:24.354Z,26.60
2018-07-08T15:08:03.252Z,26.70
2018-07-08T15:10:33.358Z,26.80
2018-07-08T15:13:14.024Z,26.70
2018-07-08T15:15:57.418Z,26.90
2018-07-08T15:18:27.823Z,27.00
2018-07-08T15:21:14.269Z,27.00
2018-07-08T15:26:39.203Z,26.80
2018-07-08T15:29:16.057Z,26.80
2018-07-08T15:31:45.024Z,26.80
2018-07-08T15:34:14.792Z,26.70
2018-07-08T15:36:46.348Z,26.80
2018-07-08T15:39:17.410Z,25.10
2018-07-08T15:41:48.813Z,26.70
2018-07-08T15:44:20.091Z,26.80
2018-07-08T15:46:48.780Z,26.80
2018-07-08T15:49:17.353Z,26.70
2018-07-08T15:51:45.803Z,26.70
2018-07-08T15:54:14.600Z,26.70
2018-07-08T15:56:43.672Z,26.70
2018-07-08T15:59:12.237Z,26.40
2018-07-08T16:01:52.630Z,26.50
2018-07-08T16:04:21.283Z,26.40
2018-07-08T16:06:49.759Z,26.50
2018-07-08T16:09:18.435Z,26.50
2018-07-08T16:11:47.213Z,26.30
2018-07-08T16:14:15.647Z,26.20
2018-07-08T16:16:44.746Z,26.30
2018-07-08T16:19:13.027Z,26.30
2018-07-08T16:21:41.623Z,26.50
2018-07-08T16:24:10.109Z,26.40
2018-07-08T16:26:38.397Z,26.60
2018-07-08T16:29:06.870Z,26.60
2018-07-08T16:31:35.178Z,26.50
2018-07-08T16:34:03.936Z,26.60
2018-07-08T16:36:47.542Z,26.60
2018-07-08T16:39:16.508Z,26.60
2018-07-08T16:41:45.822Z,26.60
2018-07-08T16:44:14.140Z,26.60
2018-07-08T16:46:42.529Z,26.60
2018-07-08T16:49:10.841Z,26.60
2018-07-08T16:51:39.228Z,26.50
2018-07-08T16:54:08.426Z,26.50
2018-07-08T16:56:36.764Z,26.50
2018-07-08T16:59:05.101Z,26.50
2018-07-08T17:01:33.555Z,26.50
2018-07-08T17:04:02.132Z,26.50
2018-07-08T17:06:30.645Z,26.50
2018-07-08T17:08:59.081Z,26.50
2018-07-08T17:11:28.461Z,26.50
2018-07-08T17:13:57.302Z,26.60
2018-07-08T17:16:25.712Z,26.50
2018-07-08T17:18:54.137Z,26.50
2018-07-08T17:21:22.581Z,26.50
2018-07-08T17:23:53.401Z,26.60
2018-07-08T17:26:22.144Z,26.60
2018-07-08T17:28:50.535Z,26.50
2018-07-08T17:31:18.801Z,26.60
2018-07-08T17:33:47.143Z,26.60
2018-07-08T17:36:15.624Z,26.70
2018-07-08T17:38:43.981Z,26.60
2018-07-08T17:41:12.370Z,26.60
2018-07-08T17:43:41.271Z,26.50
2018-07-08T17:46:09.645Z,26.60
2018-07-08T17:48:38.099Z,26.50
2018-07-08T17:51:06.377Z,26.50
2018-07-08T17:53:34.874Z,26.50
2018-07-08T17:56:03.475Z,26.40
2018-07-08T17:58:32.006Z,26.30
2018-07-08T18:01:00.385Z,26.30
2018-07-08T18:03:28.789Z,26.30
2018-07-08T18:05:57.163Z,26.30
2018-07-08T18:08:25.604Z,26.30
2018-07-08T18:10:53.937Z,26.30
2018-07-08T18:13:22.338Z,26.20
2018-07-08T18:15:50.755Z,26.10
2018-07-08T18:18:19.215Z,26.10
2018-07-08T18:20:47.828Z,26.00
2018-07-08T18:23:16.307Z,26.00
2018-07-08T18:25:44.643Z,26.00
2018-07-08T18:28:13.049Z,25.90
2018-07-08T18:30:42.019Z,25.90
2018-07-08T18:33:13.679Z,25.80
2018-07-08T18:35:43.081Z,25.80
2018-07-08T18:38:12.190Z,25.80
2018-07-08T18:40:42.968Z,25.80
2018-07-08T18:43:16.098Z,25.70
2018-07-08T18:45:45.128Z,25.70
2018-07-08T18:48:13.643Z,25.70
2018-07-08T18:50:49.662Z,25.70
2018-07-08T18:53:18.131Z,25.60
2018-07-08T18:55:46.553Z,25.60
2018-07-08T18:58:14.926Z,25.60
2018-07-08T19:00:43.235Z,25.50
2018-07-08T19:03:11.623Z,25.40
2018-07-08T19:05:40.108Z,25.40
2018-07-08T19:08:08.721Z,25.30
2018-07-08T19:10:37.427Z,25.30
2018-07-08T19:13:06.104Z,25.20
2018-07-08T19:15:34.520Z,25.30
2018-07-08T19:18:03.792Z,25.20
2018-07-08T19:20:32.114Z,25.20
2018-07-08T19:23:00.516Z,25.10
2018-07-08T19:25:33.158Z,25.00
2018-07-08T19:28:03.319Z,25.00
2018-07-08T19:30:42.272Z,25.00
2018-07-08T19:33:11.757Z,24.90
2018-07-08T19:35:45.081Z,24.70
2018-07-08T19:38:13.491Z,24.70
2018-07-08T19:43:11.410Z,24.50
2018-07-08T19:48:08.097Z,24.50
2018-07-08T19:50:36.627Z,24.50
2018-07-08T19:53:05.037Z,24.50
2018-07-08T19:55:33.406Z,24.40
2018-07-08T19:58:01.898Z,24.30
2018-07-08T20:00:30.332Z,24.20
2018-07-08T20:05:27.190Z,23.60
2018-07-08T20:07:55.430Z,23.60
2018-07-08T20:10:27.085Z,23.20
2018-07-08T20:12:55.727Z,23.10
2018-07-08T20:15:24.328Z,22.90
2018-07-08T20:17:52.765Z,22.70
2018-07-08T20:20:21.209Z,22.40
2018-07-08T20:22:49.648Z,22.30
2018-07-08T20:25:18.283Z,22.00
2018-07-08T20:27:46.745Z,22.10
2018-07-08T20:30:15.170Z,22.10
2018-07-08T20:32:43.438Z,21.90
2018-07-08T20:35:11.912Z,21.70
2018-07-08T20:37:40.359Z,21.60
2018-07-08T20:42:36.994Z,21.50
2018-07-08T20:45:05.481Z,21.60
2018-07-08T20:47:34.099Z,21.60
2018-07-08T20:50:02.694Z,21.70
2018-07-08T20:52:31.083Z,21.70
2018-07-08T20:55:00.721Z,21.60
2018-07-08T20:57:29.336Z,21.70
2018-07-08T20:59:58.162Z,21.60
2018-07-08T21:02:27.730Z,21.60
2018-07-08T21:04:56.256Z,21.50
2018-07-08T21:07:25.509Z,21.60
2018-07-08T21:09:54.344Z,21.50
2018-07-08T21:12:22.973Z,21.10
2018-07-08T21:14:58.347Z,21.30
2018-07-08T21:17:27.041Z,21.30
2018-07-08T21:22:30.573Z,21.10
2018-07-08T21:24:58.770Z,21.10
2018-07-08T21:27:26.994Z,21.00
2018-07-08T21:29:55.213Z,21.00
2018-07-08T21:32:23.411Z,20.90
2018-07-08T21:34:51.851Z,20.80
2018-07-08T21:37:20.413Z,20.70
2018-07-08T21:39:48.771Z,20.50
2018-07-08T21:42:16.964Z,20.40
2018-07-08T21:44:45.105Z,20.40
2018-07-08T21:47:13.394Z,20.20
2018-07-08T21:52:15.240Z,20.30
2018-07-08T21:54:52.256Z,20.50
2018-07-08T21:57:26.981Z,20.50
2018-07-08T21:59:58.355Z,20.50
2018-07-08T22:02:27.986Z,20.40
2018-07-08T22:04:56.471Z,20.40
2018-07-08T22:07:29.084Z,20.30
2018-07-08T22:09:57.540Z,20.30
2018-07-08T22:12:26.722Z,20.20
2018-07-08T22:14:55.278Z,20.00
2018-07-08T22:17:23.555Z,20.00
2018-07-08T22:19:53.183Z,19.90
2018-07-08T22:22:26.542Z,19.80
2018-07-08T22:25:00.102Z,19.80
2018-07-08T22:27:29.340Z,19.60
2018-07-08T22:29:57.702Z,19.60
2018-07-08T22:32:29.674Z,19.60
2018-07-08T22:35:01.436Z,19.70
2018-07-08T22:37:30.043Z,19.60
2018-07-08T22:39:58.579Z,19.50
2018-07-08T22:42:27.331Z,19.40
2018-07-08T22:44:55.844Z,19.40
2018-07-08T22:47:24.501Z,19.40
2018-07-08T22:49:53.053Z,19.50
2018-07-08T22:52:21.824Z,19.50
2018-07-08T22:54:50.008Z,19.30
2018-07-08T22:57:18.300Z,19.30
2018-07-08T22:59:58.091Z,19.30
2018-07-08T23:02:38.037Z,19.10
2018-07-08T23:05:08.681Z,19.00
2018-07-08T23:07:37.402Z,18.90
2018-07-08T23:10:05.999Z,18.90
2018-07-08T23:12:34.237Z,18.90
2018-07-08T23:15:03.082Z,18.80
2018-07-08T23:17:31.796Z,18.90
2018-07-08T23:20:00.463Z,18.80
2018-07-08T23:22:39.861Z,18.70
2018-07-08T23:25:09.060Z,18.70
2018-07-08T23:27:37.430Z,18.70
2018-07-08T23:30:05.923Z,18.70
2018-07-08T23:32:34.545Z,18.50
2018-07-08T23:35:02.799Z,18.50
2018-07-08T23:37:32.171Z,18.60
2018-07-08T23:40:00.486Z,18.60
2018-07-08T23:42:28.758Z,18.60
2018-07-08T23:44:56.966Z,18.60
2018-07-08T23:47:25.194Z,18.50
2018-07-08T23:49:53.436Z,18.50
2018-07-08T23:52:21.667Z,18.40
2018-07-08T23:54:49.874Z,18.30
2018-07-08T23:57:18.097Z,18.40
2018-07-08T23:59:46.301Z,18.30
